sensor_id;sensor_type;location;lat;lon;timestamp;P1;durP1;ratioP1;P2;durP2;ratioP2
13588;SDS011;6865;52.552;13.434;2024-01-11T00:00:31;16.13;;;8.90;;
13588;SDS011;6865;52.552;13.434;2024-01-11T00:02:58;16.47;;;8.90;;
13588;SDS011;6865;52.552;13.434;2024-01-11T00:05:24;15.53;;;8.57;;
13588;SDS011;6865;52.552;13.434;2024-01-11T00:07:51;14.90;;;8.67;;
13588;SDS011;6865;52.552;13.434;2024-01-11T00:10:18;12.43;;;7.60;;
13588;SDS011;6865;52.552;13.434;2024-01-11T00:12:46;14.93;;;7.90;;
13588;SDS011;6865;52.552;13.434;2024-01-11T00:15:13;11.50;;;7.10;;
13588;SDS011;6865;52.552;13.434;2024-01-11T00:17:40;12.93;;;7.03;;
13588;SDS011;6865;52.552;13.434;2024-01-11T00:20:07;11.00;;;6.10;;
13588;SDS011;6865;52.552;13.434;2024-01-11T00:22:35;11.47;;;6.60;;
13588;SDS011;6865;52.552;13.434;2024-01-11T00:25:02;12.00;;;5.67;;
13588;SDS011;6865;52.552;13.434;2024-01-11T00:27:28;9.43;;;5.83;;
13588;SDS011;6865;52.552;13.434;2024-01-11T00:29:55;9.40;;;5.63;;
13588;SDS011;6865;52.552;13.434;2024-01-11T00:32:22;8.97;;;5.43;;
13588;SDS011;6865;52.552;13.434;2024-01-11T00:34:49;9.80;;;5.40;;
13588;SDS011;6865;52.552;13.434;2024-01-11T00:37:16;9.60;;;5.57;;
13588;SDS011;6865;52.552;13.434;2024-01-11T00:39:42;8.43;;;5.13;;
13588;SDS011;6865;52.552;13.434;2024-01-11T00:42:10;7.83;;;4.80;;
13588;SDS011;6865;52.552;13.434;2024-01-11T00:44:36;12.07;;;5.23;;
13588;SDS011;6865;52.552;13.434;2024-01-11T00:47:03;9.77;;;5.67;;
13588;SDS011;6865;52.552;13.434;2024-01-11T00:49:30;12.77;;;6.20;;
13588;SDS011;6865;52.552;13.434;2024-01-11T00:51:57;9.73;;;5.40;;
13588;SDS011;6865;52.552;13.434;2024-01-11T00:54:23;10.10;;;5.60;;
13588;SDS011;6865;52.552;13.434;2024-01-11T00:56:51;11.90;;;6.10;;
13588;SDS011;6865;52.552;13.434;2024-01-11T00:59:17;9.20;;;5.30;;
13588;SDS011;6865;52.552;13.434;2024-01-11T01:01:46;11.03;;;5.37;;
13588;SDS011;6865;52.552;13.434;2024-01-11T01:04:14;12.10;;;5.40;;
13588;SDS011;6865;52.552;13.434;2024-01-11T01:06:41;11.43;;;5.20;;
13588;SDS011;6865;52.552;13.434;2024-01-11T01:09:08;11.43;;;5.80;;
13588;SDS011;6865;52.552;13.434;2024-01-11T01:11:35;10.60;;;5.00;;
13588;SDS011;6865;52.552;13.434;2024-01-11T01:14:02;9.30;;;4.90;;
13588;SDS011;6865;52.552;13.434;2024-01-11T01:16:29;8.50;;;4.97;;
13588;SDS011;6865;52.552;13.434;2024-01-11T01:18:55;12.83;;;4.97;;
13588;SDS011;6865;52.552;13.434;2024-01-11T01:21:23;8.40;;;5.00;;
13588;SDS011;6865;52.552;13.434;2024-01-11T01:23:49;8.47;;;4.83;;
13588;SDS011;6865;52.552;13.434;2024-01-11T01:26:16;12.07;;;5.80;;
13588;SDS011;6865;52.552;13.434;2024-01-11T01:28:43;11.77;;;5.30;;
13588;SDS011;6865;52.552;13.434;2024-01-11T01:31:09;9.23;;;4.80;;
13588;SDS011;6865;52.552;13.434;2024-01-11T01:33:36;10.53;;;5.87;;
13588;SDS011;6865;52.552;13.434;2024-01-11T01:36:03;8.43;;;5.20;;
13588;SDS011;6865;52.552;13.434;2024-01-11T01:38:34;8.57;;;4.60;;
13588;SDS011;6865;52.552;13.434;2024-01-11T01:41:01;10.77;;;5.13;;
13588;SDS011;6865;52.552;13.434;2024-01-11T01:43:27;9.07;;;5.03;;
13588;SDS011;6865;52.552;13.434;2024-01-11T01:45:54;10.13;;;5.03;;
13588;SDS011;6865;52.552;13.434;2024-01-11T01:48:21;10.33;;;5.17;;
13588;SDS011;6865;52.552;13.434;2024-01-11T01:50:48;11.07;;;5.37;;
13588;SDS011;6865;52.552;13.434;2024-01-11T01:53:19;13.17;;;6.37;;
13588;SDS011;6865;52.552;13.434;2024-01-11T01:55:47;14.67;;;6.50;;
13588;SDS011;6865;52.552;13.434;2024-01-11T01:58:15;11.40;;;5.83;;
13588;SDS011;6865;52.552;13.434;2024-01-11T02:00:44;12.33;;;6.07;;
13588;SDS011;6865;52.552;13.434;2024-01-11T02:03:11;13.50;;;6.10;;
13588;SDS011;6865;52.552;13.434;2024-01-11T02:05:41;12.20;;;5.80;;
13588;SDS011;6865;52.552;13.434;2024-01-11T02:08:08;14.47;;;7.07;;
13588;SDS011;6865;52.552;13.434;2024-01-11T02:10:43;11.70;;;5.83;;
13588;SDS011;6865;52.552;13.434;2024-01-11T02:13:12;11.90;;;6.07;;
13588;SDS011;6865;52.552;13.434;2024-01-11T02:15:39;13.33;;;6.20;;
13588;SDS011;6865;52.552;13.434;2024-01-11T02:18:06;11.37;;;5.97;;
13588;SDS011;6865;52.552;13.434;2024-01-11T02:20:33;13.20;;;5.40;;
13588;SDS011;6865;52.552;13.434;2024-01-11T02:23:11;13.57;;;5.47;;
13588;SDS011;6865;52.552;13.434;2024-01-11T02:25:45;13.63;;;6.43;;
13588;SDS011;6865;52.552;13.434;2024-01-11T02:28:12;9.83;;;5.00;;
13588;SDS011;6865;52.552;13.434;2024-01-11T02:30:39;10.70;;;5.87;;
13588;SDS011;6865;52.552;13.434;2024-01-11T02:33:05;12.20;;;5.70;;
13588;SDS011;6865;52.552;13.434;2024-01-11T02:35:32;12.90;;;5.60;;
13588;SDS011;6865;52.552;13.434;2024-01-11T02:38:00;13.03;;;5.40;;
13588;SDS011;6865;52.552;13.434;2024-01-11T02:40:27;12.97;;;5.87;;
13588;SDS011;6865;52.552;13.434;2024-01-11T02:42:55;9.27;;;5.03;;
13588;SDS011;6865;52.552;13.434;2024-01-11T02:45:22;9.87;;;5.07;;
13588;SDS011;6865;52.552;13.434;2024-01-11T02:47:48;11.00;;;5.87;;
13588;SDS011;6865;52.552;13.434;2024-01-11T02:50:15;12.13;;;7.20;;
13588;SDS011;6865;52.552;13.434;2024-01-11T02:52:42;11.00;;;5.40;;
13588;SDS011;6865;52.552;13.434;2024-01-11T02:55:09;14.00;;;5.70;;
13588;SDS011;6865;52.552;13.434;2024-01-11T02:57:36;10.10;;;5.83;;
13588;SDS011;6865;52.552;13.434;2024-01-11T03:00:02;11.70;;;5.83;;
13588;SDS011;6865;52.552;13.434;2024-01-11T03:02:30;11.37;;;5.90;;
13588;SDS011;6865;52.552;13.434;2024-01-11T03:04:57;11.17;;;5.80;;
13588;SDS011;6865;52.552;13.434;2024-01-11T03:07:23;12.17;;;5.93;;
13588;SDS011;6865;52.552;13.434;2024-01-11T03:09:50;11.50;;;6.10;;
13588;SDS011;6865;52.552;13.434;2024-01-11T03:12:17;11.13;;;5.70;;
13588;SDS011;6865;52.552;13.434;2024-01-11T03:14:43;14.10;;;6.07;;
13588;SDS011;6865;52.552;13.434;2024-01-11T03:17:10;13.77;;;6.20;;
13588;SDS011;6865;52.552;13.434;2024-01-11T03:19:40;12.33;;;5.83;;
13588;SDS011;6865;52.552;13.434;2024-01-11T03:22:07;10.13;;;5.50;;
13588;SDS011;6865;52.552;13.434;2024-01-11T03:24:37;13.00;;;6.23;;
13588;SDS011;6865;52.552;13.434;2024-01-11T03:27:05;12.43;;;6.17;;
13588;SDS011;6865;52.552;13.434;2024-01-11T03:29:32;17.17;;;7.10;;
13588;SDS011;6865;52.552;13.434;2024-01-11T03:31:58;13.00;;;6.80;;
13588;SDS011;6865;52.552;13.434;2024-01-11T03:34:25;11.93;;;6.07;;
13588;SDS011;6865;52.552;13.434;2024-01-11T03:36:52;13.03;;;6.30;;
13588;SDS011;6865;52.552;13.434;2024-01-11T03:39:19;10.60;;;5.63;;
13588;SDS011;6865;52.552;13.434;2024-01-11T03:41:45;11.50;;;6.63;;
13588;SDS011;6865;52.552;13.434;2024-01-11T03:44:13;11.83;;;5.77;;
13588;SDS011;6865;52.552;13.434;2024-01-11T03:46:40;12.20;;;6.73;;
13588;SDS011;6865;52.552;13.434;2024-01-11T03:49:06;11.97;;;5.77;;
13588;SDS011;6865;52.552;13.434;2024-01-11T03:51:34;10.67;;;5.83;;
13588;SDS011;6865;52.552;13.434;2024-01-11T03:54:01;11.97;;;6.63;;
13588;SDS011;6865;52.552;13.434;2024-01-11T03:56:27;12.97;;;6.43;;
13588;SDS011;6865;52.552;13.434;2024-01-11T03:58:54;12.37;;;5.80;;
13588;SDS011;6865;52.552;13.434;2024-01-11T04:01:21;11.03;;;6.10;;
13588;SDS011;6865;52.552;13.434;2024-01-11T04:03:48;11.03;;;5.93;;
13588;SDS011;6865;52.552;13.434;2024-01-11T04:06:21;10.63;;;5.63;;
13588;SDS011;6865;52.552;13.434;2024-01-11T04:08:50;13.83;;;6.30;;
13588;SDS011;6865;52.552;13.434;2024-01-11T04:11:17;14.47;;;6.27;;
13588;SDS011;6865;52.552;13.434;2024-01-11T04:13:44;12.83;;;6.00;;
13588;SDS011;6865;52.552;13.434;2024-01-11T04:16:11;12.27;;;6.07;;
13588;SDS011;6865;52.552;13.434;2024-01-11T04:18:38;15.40;;;6.50;;
13588;SDS011;6865;52.552;13.434;2024-01-11T04:21:05;13.60;;;6.00;;
13588;SDS011;6865;52.552;13.434;2024-01-11T04:23:31;18.60;;;6.43;;
13588;SDS011;6865;52.552;13.434;2024-01-11T04:25:58;15.20;;;5.93;;
13588;SDS011;6865;52.552;13.434;2024-01-11T04:28:25;13.33;;;6.27;;
13588;SDS011;6865;52.552;13.434;2024-01-11T04:30:52;15.97;;;6.33;;
13588;SDS011;6865;52.552;13.434;2024-01-11T04:33:18;14.13;;;6.30;;
13588;SDS011;6865;52.552;13.434;2024-01-11T04:35:45;16.17;;;6.63;;
13588;SDS011;6865;52.552;13.434;2024-01-11T04:38:12;17.20;;;6.37;;
13588;SDS011;6865;52.552;13.434;2024-01-11T04:40:39;13.23;;;6.23;;
13588;SDS011;6865;52.552;13.434;2024-01-11T04:43:05;13.53;;;6.80;;
13588;SDS011;6865;52.552;13.434;2024-01-11T04:45:33;15.70;;;6.73;;
13588;SDS011;6865;52.552;13.434;2024-01-11T04:48:00;15.67;;;6.60;;
13588;SDS011;6865;52.552;13.434;2024-01-11T04:50:27;17.87;;;7.17;;
13588;SDS011;6865;52.552;13.434;2024-01-11T04:52:54;12.90;;;7.23;;
13588;SDS011;6865;52.552;13.434;2024-01-11T04:55:20;13.20;;;5.90;;
13588;SDS011;6865;52.552;13.434;2024-01-11T04:57:47;16.17;;;7.10;;
13588;SDS011;6865;52.552;13.434;2024-01-11T05:00:14;17.47;;;7.27;;
13588;SDS011;6865;52.552;13.434;2024-01-11T05:02:41;17.90;;;7.63;;
13588;SDS011;6865;52.552;13.434;2024-01-11T05:05:08;20.57;;;8.10;;
13588;SDS011;6865;52.552;13.434;2024-01-11T05:07:34;18.47;;;7.70;;
13588;SDS011;6865;52.552;13.434;2024-01-11T05:10:01;17.37;;;7.00;;
13588;SDS011;6865;52.552;13.434;2024-01-11T05:12:34;16.63;;;7.07;;
13588;SDS011;6865;52.552;13.434;2024-01-11T05:15:22;18.03;;;7.83;;
13588;SDS011;6865;52.552;13.434;2024-01-11T05:17:50;20.97;;;7.67;;
13588;SDS011;6865;52.552;13.434;2024-01-11T05:20:17;15.20;;;7.07;;
13588;SDS011;6865;52.552;13.434;2024-01-11T05:22:44;18.20;;;7.73;;
13588;SDS011;6865;52.552;13.434;2024-01-11T05:25:10;13.77;;;6.63;;
13588;SDS011;6865;52.552;13.434;2024-01-11T05:27:37;18.57;;;8.00;;
13588;SDS011;6865;52.552;13.434;2024-01-11T05:30:04;21.73;;;7.90;;
13588;SDS011;6865;52.552;13.434;2024-01-11T05:32:31;22.20;;;8.00;;
13588;SDS011;6865;52.552;13.434;2024-01-11T05:34:58;18.10;;;7.73;;
13588;SDS011;6865;52.552;13.434;2024-01-11T05:37:25;19.23;;;8.07;;
13588;SDS011;6865;52.552;13.434;2024-01-11T05:39:52;18.60;;;8.17;;
13588;SDS011;6865;52.552;13.434;2024-01-11T05:42:20;18.97;;;8.67;;
13588;SDS011;6865;52.552;13.434;2024-01-11T05:44:47;20.30;;;8.67;;
13588;SDS011;6865;52.552;13.434;2024-01-11T05:47:13;20.03;;;8.80;;
13588;SDS011;6865;52.552;13.434;2024-01-11T05:49:40;21.70;;;8.20;;
13588;SDS011;6865;52.552;13.434;2024-01-11T05:52:07;19.43;;;8.53;;
13588;SDS011;6865;52.552;13.434;2024-01-11T05:54:34;20.77;;;9.10;;
13588;SDS011;6865;52.552;13.434;2024-01-11T05:57:01;20.80;;;9.57;;
13588;SDS011;6865;52.552;13.434;2024-01-11T05:59:28;19.27;;;8.70;;
13588;SDS011;6865;52.552;13.434;2024-01-11T06:01:55;20.53;;;8.47;;
13588;SDS011;6865;52.552;13.434;2024-01-11T06:04:26;23.30;;;9.47;;
13588;SDS011;6865;52.552;13.434;2024-01-11T06:06:53;20.77;;;9.40;;
13588;SDS011;6865;52.552;13.434;2024-01-11T06:09:19;23.50;;;9.27;;
13588;SDS011;6865;52.552;13.434;2024-01-11T06:11:46;23.03;;;8.93;;
13588;SDS011;6865;52.552;13.434;2024-01-11T06:14:13;22.03;;;10.07;;
13588;SDS011;6865;52.552;13.434;2024-01-11T06:16:40;20.50;;;9.37;;
13588;SDS011;6865;52.552;13.434;2024-01-11T06:19:07;21.73;;;9.37;;
13588;SDS011;6865;52.552;13.434;2024-01-11T06:21:36;20.87;;;9.40;;
13588;SDS011;6865;52.552;13.434;2024-01-11T06:24:03;18.50;;;8.50;;
13588;SDS011;6865;52.552;13.434;2024-01-11T06:26:30;23.33;;;9.83;;
13588;SDS011;6865;52.552;13.434;2024-01-11T06:28:56;18.73;;;9.10;;
13588;SDS011;6865;52.552;13.434;2024-01-11T06:31:23;21.30;;;10.03;;
13588;SDS011;6865;52.552;13.434;2024-01-11T06:33:50;21.90;;;9.67;;
13588;SDS011;6865;52.552;13.434;2024-01-11T06:36:17;19.73;;;9.37;;
13588;SDS011;6865;52.552;13.434;2024-01-11T06:38:43;23.77;;;10.10;;
13588;SDS011;6865;52.552;13.434;2024-01-11T06:41:10;21.77;;;9.50;;
13588;SDS011;6865;52.552;13.434;2024-01-11T06:43:37;20.00;;;9.60;;
13588;SDS011;6865;52.552;13.434;2024-01-11T06:46:04;23.83;;;10.13;;
13588;SDS011;6865;52.552;13.434;2024-01-11T06:48:31;23.43;;;10.80;;
13588;SDS011;6865;52.552;13.434;2024-01-11T06:50:59;19.03;;;9.00;;
13588;SDS011;6865;52.552;13.434;2024-01-11T06:53:27;21.10;;;10.37;;
13588;SDS011;6865;52.552;13.434;2024-01-11T06:55:54;26.30;;;11.33;;
13588;SDS011;6865;52.552;13.434;2024-01-11T06:58:21;24.00;;;10.67;;
13588;SDS011;6865;52.552;13.434;2024-01-11T07:00:51;25.53;;;11.10;;
13588;SDS011;6865;52.552;13.434;2024-01-11T07:03:17;24.50;;;10.87;;
13588;SDS011;6865;52.552;13.434;2024-01-11T07:05:44;25.33;;;11.40;;
13588;SDS011;6865;52.552;13.434;2024-01-11T07:08:11;24.50;;;11.20;;
13588;SDS011;6865;52.552;13.434;2024-01-11T07:10:38;23.57;;;10.63;;
13588;SDS011;6865;52.552;13.434;2024-01-11T07:13:05;27.90;;;11.53;;
13588;SDS011;6865;52.552;13.434;2024-01-11T07:15:33;22.63;;;11.73;;
13588;SDS011;6865;52.552;13.434;2024-01-11T07:17:59;25.47;;;11.30;;
13588;SDS011;6865;52.552;13.434;2024-01-11T07:20:26;24.37;;;11.03;;
13588;SDS011;6865;52.552;13.434;2024-01-11T07:22:53;25.97;;;9.67;;
13588;SDS011;6865;52.552;13.434;2024-01-11T07:25:20;30.00;;;11.43;;
13588;SDS011;6865;52.552;13.434;2024-01-11T07:27:46;31.00;;;12.30;;
13588;SDS011;6865;52.552;13.434;2024-01-11T07:30:13;26.87;;;11.53;;
13588;SDS011;6865;52.552;13.434;2024-01-11T07:32:40;26.23;;;11.13;;
13588;SDS011;6865;52.552;13.434;2024-01-11T07:35:07;26.70;;;11.57;;
13588;SDS011;6865;52.552;13.434;2024-01-11T07:37:41;27.00;;;11.53;;
13588;SDS011;6865;52.552;13.434;2024-01-11T07:40:08;25.30;;;11.07;;
13588;SDS011;6865;52.552;13.434;2024-01-11T07:42:37;25.90;;;11.53;;
13588;SDS011;6865;52.552;13.434;2024-01-11T07:45:08;25.20;;;10.93;;
13588;SDS011;6865;52.552;13.434;2024-01-11T07:47:42;25.47;;;10.23;;
13588;SDS011;6865;52.552;13.434;2024-01-11T07:50:09;28.90;;;12.60;;
13588;SDS011;6865;52.552;13.434;2024-01-11T07:52:36;24.60;;;10.57;;
13588;SDS011;6865;52.552;13.434;2024-01-11T07:55:03;27.87;;;12.30;;
13588;SDS011;6865;52.552;13.434;2024-01-11T07:57:34;27.30;;;11.27;;
13588;SDS011;6865;52.552;13.434;2024-01-11T08:00:01;26.97;;;12.47;;
13588;SDS011;6865;52.552;13.434;2024-01-11T08:02:29;29.27;;;13.03;;
13588;SDS011;6865;52.552;13.434;2024-01-11T08:04:56;28.70;;;12.40;;
13588;SDS011;6865;52.552;13.434;2024-01-11T08:07:23;28.73;;;12.17;;
13588;SDS011;6865;52.552;13.434;2024-01-11T08:09:49;31.50;;;12.60;;
13588;SDS011;6865;52.552;13.434;2024-01-11T08:12:16;25.60;;;11.93;;
13588;SDS011;6865;52.552;13.434;2024-01-11T08:14:43;29.40;;;12.57;;
13588;SDS011;6865;52.552;13.434;2024-01-11T08:17:12;28.53;;;12.30;;
13588;SDS011;6865;52.552;13.434;2024-01-11T08:19:40;27.83;;;12.13;;
13588;SDS011;6865;52.552;13.434;2024-01-11T08:22:09;27.20;;;12.30;;
13588;SDS011;6865;52.552;13.434;2024-01-11T08:24:37;26.43;;;11.53;;
13588;SDS011;6865;52.552;13.434;2024-01-11T08:27:04;26.30;;;11.17;;
13588;SDS011;6865;52.552;13.434;2024-01-11T08:29:32;27.67;;;11.90;;
13588;SDS011;6865;52.552;13.434;2024-01-11T08:31:59;28.07;;;12.83;;
13588;SDS011;6865;52.552;13.434;2024-01-11T08:34:49;24.60;;;11.47;;
13588;SDS011;6865;52.552;13.434;2024-01-11T08:37:16;26.50;;;12.63;;
13588;SDS011;6865;52.552;13.434;2024-01-11T08:39:43;29.33;;;12.10;;
13588;SDS011;6865;52.552;13.434;2024-01-11T08:42:09;24.03;;;11.93;;
13588;SDS011;6865;52.552;13.434;2024-01-11T08:44:36;27.50;;;12.00;;
13588;SDS011;6865;52.552;13.434;2024-01-11T08:47:07;26.60;;;12.67;;
13588;SDS011;6865;52.552;13.434;2024-01-11T08:49:36;25.30;;;12.17;;
13588;SDS011;6865;52.552;13.434;2024-01-11T08:52:05;29.47;;;12.87;;
13588;SDS011;6865;52.552;13.434;2024-01-11T08:54:32;28.57;;;13.40;;
13588;SDS011;6865;52.552;13.434;2024-01-11T08:56:59;29.13;;;12.70;;
13588;SDS011;6865;52.552;13.434;2024-01-11T08:59:26;31.03;;;13.33;;
13588;SDS011;6865;52.552;13.434;2024-01-11T09:01:53;30.53;;;13.30;;
13588;SDS011;6865;52.552;13.434;2024-01-11T09:04:35;26.77;;;12.60;;
13588;SDS011;6865;52.552;13.434;2024-01-11T09:07:02;26.70;;;12.37;;
13588;SDS011;6865;52.552;13.434;2024-01-11T09:09:29;30.07;;;13.00;;
13588;SDS011;6865;52.552;13.434;2024-01-11T09:11:59;29.10;;;13.03;;
13588;SDS011;6865;52.552;13.434;2024-01-11T09:14:26;30.43;;;12.50;;
13588;SDS011;6865;52.552;13.434;2024-01-11T09:16:53;32.17;;;13.27;;
13588;SDS011;6865;52.552;13.434;2024-01-11T09:19:21;24.00;;;12.20;;
13588;SDS011;6865;52.552;13.434;2024-01-11T09:21:48;28.37;;;12.73;;
13588;SDS011;6865;52.552;13.434;2024-01-11T09:24:14;29.70;;;13.17;;
13588;SDS011;6865;52.552;13.434;2024-01-11T09:26:41;24.73;;;12.10;;
13588;SDS011;6865;52.552;13.434;2024-01-11T09:29:08;30.50;;;13.10;;
13588;SDS011;6865;52.552;13.434;2024-01-11T09:31:35;27.97;;;14.03;;
13588;SDS011;6865;52.552;13.434;2024-01-11T09:34:01;27.57;;;13.17;;
13588;SDS011;6865;52.552;13.434;2024-01-11T09:36:29;29.03;;;12.97;;
13588;SDS011;6865;52.552;13.434;2024-01-11T09:38:56;27.97;;;13.10;;
13588;SDS011;6865;52.552;13.434;2024-01-11T09:41:23;29.80;;;13.40;;
13588;SDS011;6865;52.552;13.434;2024-01-11T09:43:50;28.10;;;13.50;;
13588;SDS011;6865;52.552;13.434;2024-01-11T09:46:20;27.10;;;12.47;;
13588;SDS011;6865;52.552;13.434;2024-01-11T09:48:48;33.50;;;13.93;;
13588;SDS011;6865;52.552;13.434;2024-01-11T09:51:16;27.50;;;13.13;;
13588;SDS011;6865;52.552;13.434;2024-01-11T09:53:43;28.10;;;13.70;;
13588;SDS011;6865;52.552;13.434;2024-01-11T09:56:10;28.23;;;13.60;;
13588;SDS011;6865;52.552;13.434;2024-01-11T09:58:37;30.67;;;13.87;;
13588;SDS011;6865;52.552;13.434;2024-01-11T10:01:10;27.80;;;13.70;;
13588;SDS011;6865;52.552;13.434;2024-01-11T10:03:39;26.87;;;13.50;;
13588;SDS011;6865;52.552;13.434;2024-01-11T10:06:07;32.10;;;14.30;;
13588;SDS011;6865;52.552;13.434;2024-01-11T10:08:35;25.93;;;13.27;;
13588;SDS011;6865;52.552;13.434;2024-01-11T10:11:02;27.50;;;14.53;;
13588;SDS011;6865;52.552;13.434;2024-01-11T10:13:30;28.70;;;14.47;;
13588;SDS011;6865;52.552;13.434;2024-01-11T10:16:08;24.87;;;12.37;;
13588;SDS011;6865;52.552;13.434;2024-01-11T10:18:36;28.03;;;14.07;;
13588;SDS011;6865;52.552;13.434;2024-01-11T10:21:03;28.90;;;14.00;;
13588;SDS011;6865;52.552;13.434;2024-01-11T10:23:32;28.67;;;13.60;;
13588;SDS011;6865;52.552;13.434;2024-01-11T10:26:00;23.50;;;12.47;;
13588;SDS011;6865;52.552;13.434;2024-01-11T10:28:27;19.53;;;11.53;;
13588;SDS011;6865;52.552;13.434;2024-01-11T10:30:54;20.90;;;12.40;;
13588;SDS011;6865;52.552;13.434;2024-01-11T10:33:22;24.07;;;12.67;;
13588;SDS011;6865;52.552;13.434;2024-01-11T10:35:49;20.40;;;11.63;;
13588;SDS011;6865;52.552;13.434;2024-01-11T10:38:16;21.90;;;12.20;;
13588;SDS011;6865;52.552;13.434;2024-01-11T10:40:44;21.37;;;12.27;;
13588;SDS011;6865;52.552;13.434;2024-01-11T10:43:11;24.10;;;11.67;;
13588;SDS011;6865;52.552;13.434;2024-01-11T10:45:41;19.50;;;11.27;;
13588;SDS011;6865;52.552;13.434;2024-01-11T10:48:12;23.83;;;12.60;;
13588;SDS011;6865;52.552;13.434;2024-01-11T10:50:44;19.37;;;10.90;;
13588;SDS011;6865;52.552;13.434;2024-01-11T10:53:25;17.77;;;9.97;;
13588;SDS011;6865;52.552;13.434;2024-01-11T10:56:01;17.20;;;10.53;;
13588;SDS011;6865;52.552;13.434;2024-01-11T10:58:31;17.97;;;10.37;;
13588;SDS011;6865;52.552;13.434;2024-01-11T11:00:59;16.13;;;9.97;;
13588;SDS011;6865;52.552;13.434;2024-01-11T11:03:27;17.00;;;10.40;;
13588;SDS011;6865;52.552;13.434;2024-01-11T11:05:58;16.27;;;10.30;;
13588;SDS011;6865;52.552;13.434;2024-01-11T11:08:25;17.10;;;10.70;;
13588;SDS011;6865;52.552;13.434;2024-01-11T11:10:56;16.17;;;9.90;;
13588;SDS011;6865;52.552;13.434;2024-01-11T11:13:24;16.73;;;9.70;;
13588;SDS011;6865;52.552;13.434;2024-01-11T11:15:51;16.67;;;9.93;;
13588;SDS011;6865;52.552;13.434;2024-01-11T11:18:19;17.63;;;10.33;;
13588;SDS011;6865;52.552;13.434;2024-01-11T11:20:47;17.17;;;10.27;;
13588;SDS011;6865;52.552;13.434;2024-01-11T11:23:15;16.07;;;10.43;;
13588;SDS011;6865;52.552;13.434;2024-01-11T11:25:46;15.93;;;9.60;;
13588;SDS011;6865;52.552;13.434;2024-01-11T11:28:14;17.17;;;9.27;;
13588;SDS011;6865;52.552;13.434;2024-01-11T11:30:44;17.27;;;9.77;;
13588;SDS011;6865;52.552;13.434;2024-01-11T11:33:18;15.23;;;9.43;;
13588;SDS011;6865;52.552;13.434;2024-01-11T11:35:53;15.07;;;9.00;;
13588;SDS011;6865;52.552;13.434;2024-01-11T11:38:22;15.23;;;9.80;;
13588;SDS011;6865;52.552;13.434;2024-01-11T11:40:51;16.37;;;9.90;;
13588;SDS011;6865;52.552;13.434;2024-01-11T11:43:21;17.03;;;9.93;;
13588;SDS011;6865;52.552;13.434;2024-01-11T11:45:49;17.60;;;10.17;;
13588;SDS011;6865;52.552;13.434;2024-01-11T11:53:35;15.57;;;9.80;;
13588;SDS011;6865;52.552;13.434;2024-01-11T11:56:03;18.20;;;11.00;;
13588;SDS011;6865;52.552;13.434;2024-01-11T11:58:31;19.73;;;10.97;;
13588;SDS011;6865;52.552;13.434;2024-01-11T12:00:59;19.33;;;11.50;;
13588;SDS011;6865;52.552;13.434;2024-01-11T12:03:31;17.53;;;10.67;;
13588;SDS011;6865;52.552;13.434;2024-01-11T12:06:00;20.07;;;12.10;;
13588;SDS011;6865;52.552;13.434;2024-01-11T12:08:27;18.93;;;11.40;;
13588;SDS011;6865;52.552;13.434;2024-01-11T12:10:54;18.47;;;11.27;;
13588;SDS011;6865;52.552;13.434;2024-01-11T12:13:20;21.60;;;12.27;;
13588;SDS011;6865;52.552;13.434;2024-01-11T12:15:48;17.97;;;11.40;;
13588;SDS011;6865;52.552;13.434;2024-01-11T12:18:14;21.67;;;12.43;;
13588;SDS011;6865;52.552;13.434;2024-01-11T12:20:42;19.30;;;11.90;;
13588;SDS011;6865;52.552;13.434;2024-01-11T12:23:09;23.30;;;13.90;;
13588;SDS011;6865;52.552;13.434;2024-01-11T12:25:36;19.23;;;11.60;;
13588;SDS011;6865;52.552;13.434;2024-01-11T12:28:03;22.17;;;12.33;;
13588;SDS011;6865;52.552;13.434;2024-01-11T12:30:31;21.93;;;12.30;;
13588;SDS011;6865;52.552;13.434;2024-01-11T12:32:59;18.43;;;11.70;;
13588;SDS011;6865;52.552;13.434;2024-01-11T12:35:30;18.97;;;11.53;;
13588;SDS011;6865;52.552;13.434;2024-01-11T12:38:05;21.13;;;11.63;;
13588;SDS011;6865;52.552;13.434;2024-01-11T12:40:32;18.47;;;11.37;;
13588;SDS011;6865;52.552;13.434;2024-01-11T12:43:10;19.37;;;11.47;;
13588;SDS011;6865;52.552;13.434;2024-01-11T12:45:37;19.37;;;10.53;;
13588;SDS011;6865;52.552;13.434;2024-01-11T12:48:08;19.60;;;11.43;;
13588;SDS011;6865;52.552;13.434;2024-01-11T12:50:35;17.47;;;10.03;;
13588;SDS011;6865;52.552;13.434;2024-01-11T12:53:09;20.10;;;10.87;;
13588;SDS011;6865;52.552;13.434;2024-01-11T12:55:46;18.70;;;10.77;;
13588;SDS011;6865;52.552;13.434;2024-01-11T12:58:23;17.70;;;10.43;;
13588;SDS011;6865;52.552;13.434;2024-01-11T13:00:53;20.03;;;11.33;;
13588;SDS011;6865;52.552;13.434;2024-01-11T13:03:20;15.93;;;9.97;;
13588;SDS011;6865;52.552;13.434;2024-01-11T13:05:48;19.10;;;10.90;;
13588;SDS011;6865;52.552;13.434;2024-01-11T13:08:15;18.80;;;10.53;;
13588;SDS011;6865;52.552;13.434;2024-01-11T13:10:46;14.53;;;9.50;;
13588;SDS011;6865;52.552;13.434;2024-01-11T13:13:14;17.47;;;9.70;;
13588;SDS011;6865;52.552;13.434;2024-01-11T13:15:41;14.97;;;8.97;;
13588;SDS011;6865;52.552;13.434;2024-01-11T13:18:08;19.83;;;10.40;;
13588;SDS011;6865;52.552;13.434;2024-01-11T13:20:35;15.20;;;9.03;;
13588;SDS011;6865;52.552;13.434;2024-01-11T13:23:15;14.77;;;9.40;;
13588;SDS011;6865;52.552;13.434;2024-01-11T13:25:44;17.33;;;9.43;;
13588;SDS011;6865;52.552;13.434;2024-01-11T13:28:12;16.63;;;9.77;;
13588;SDS011;6865;52.552;13.434;2024-01-11T13:30:39;15.20;;;9.80;;
13588;SDS011;6865;52.552;13.434;2024-01-11T13:33:08;19.77;;;10.20;;
13588;SDS011;6865;52.552;13.434;2024-01-11T13:35:37;15.77;;;9.07;;
13588;SDS011;6865;52.552;13.434;2024-01-11T13:38:11;18.97;;;9.73;;
13588;SDS011;6865;52.552;13.434;2024-01-11T13:40:38;16.53;;;9.57;;
13588;SDS011;6865;52.552;13.434;2024-01-11T13:43:06;16.60;;;9.40;;
13588;SDS011;6865;52.552;13.434;2024-01-11T13:45:33;16.73;;;9.67;;
13588;SDS011;6865;52.552;13.434;2024-01-11T13:48:02;17.13;;;9.83;;
13588;SDS011;6865;52.552;13.434;2024-01-11T13:50:30;20.37;;;10.70;;
13588;SDS011;6865;52.552;13.434;2024-01-11T13:52:58;20.17;;;10.87;;
13588;SDS011;6865;52.552;13.434;2024-01-11T13:55:26;20.67;;;10.60;;
13588;SDS011;6865;52.552;13.434;2024-01-11T13:57:53;21.63;;;10.60;;
13588;SDS011;6865;52.552;13.434;2024-01-11T14:00:20;20.70;;;10.23;;
13588;SDS011;6865;52.552;13.434;2024-01-11T14:02:47;20.50;;;10.13;;
13588;SDS011;6865;52.552;13.434;2024-01-11T14:05:14;18.70;;;9.70;;
13588;SDS011;6865;52.552;13.434;2024-01-11T14:07:44;16.37;;;9.87;;
13588;SDS011;6865;52.552;13.434;2024-01-11T14:10:12;17.83;;;9.30;;
13588;SDS011;6865;52.552;13.434;2024-01-11T14:12:40;18.30;;;10.00;;
13588;SDS011;6865;52.552;13.434;2024-01-11T14:15:08;15.57;;;9.17;;
13588;SDS011;6865;52.552;13.434;2024-01-11T14:17:39;14.73;;;8.53;;
13588;SDS011;6865;52.552;13.434;2024-01-11T14:20:07;15.30;;;8.33;;
13588;SDS011;6865;52.552;13.434;2024-01-11T14:22:40;12.63;;;7.87;;
13588;SDS011;6865;52.552;13.434;2024-01-11T14:25:08;12.47;;;7.00;;
13588;SDS011;6865;52.552;13.434;2024-01-11T14:27:37;22.50;;;9.77;;
13588;SDS011;6865;52.552;13.434;2024-01-11T14:30:08;12.97;;;7.90;;
13588;SDS011;6865;52.552;13.434;2024-01-11T14:32:36;14.97;;;8.37;;
13588;SDS011;6865;52.552;13.434;2024-01-11T14:35:04;16.93;;;8.13;;
13588;SDS011;6865;52.552;13.434;2024-01-11T14:37:36;15.57;;;8.27;;
13588;SDS011;6865;52.552;13.434;2024-01-11T14:40:05;30.63;;;9.43;;